Time;durP1;ratioP1;P1;durP2;ratioP2;P2;SDS_P1;SDS_P2;PMS_P1;PMS_P2;Temp;Humidity;BMP_temperature;BMP_pressure;BME280_temperature;BME280_humidity;BME280_pressure;Samples;Min_cycle;Max_cycle;Signal;HPM_P1;HPM_P2
2022/12/21 00:00:16;;;;;;;5.32;3.85;;;10.30;99.90;;;;;;10020780;28;20046;-50
2022/12/21 00:05:08;;;;;;;6.28;3.22;;;10.30;99.90;;;;;;10004631;28;20056;-61
2022/12/21 00:09:59;;;;;;;4.55;2.95;;;10.30;99.90;;;;;;10010953;28;20025;-49
2022/12/21 00:14:50;;;;;;;9.32;3.42;;;10.30;99.90;;;;;;10016348;28;20099;-52
2022/12/21 00:19:40;;;;;;;8.60;3.28;;;10.20;99.90;;;;;;10017732;28;20137;-54
2022/12/21 00:24:32;;;;;;;5.00;3.60;;;10.20;99.90;;;;;;10020069;28;20140;-58
2022/12/21 00:29:22;;;;;;;6.57;3.08;;;10.20;99.90;;;;;;10020063;28;20076;-63
2022/12/21 00:34:21;;;;;;;3.58;2.92;;;10.10;99.90;;;;;;10011600;28;20508;-59
2022/12/21 00:39:12;;;;;;;5.57;2.95;;;10.10;99.90;;;;;;10020752;28;20099;-52
2022/12/21 00:44:03;;;;;;;7.72;2.95;;;10.10;99.90;;;;;;10020299;28;20029;-52
2022/12/21 00:49:01;;;;;;;4.22;2.92;;;10.00;99.90;;;;;;10019843;28;20022;-47
2022/12/21 00:53:56;;;;;;;6.72;3.42;;;10.00;99.90;;;;;;10019699;28;20021;-53
2022/12/21 00:58:47;;;;;;;7.87;3.50;;;10.00;99.90;;;;;;10019468;28;20103;-52
2022/12/21 01:03:37;;;;;;;4.88;2.80;;;9.90;99.90;;;;;;10017623;28;20069;-51
2022/12/21 01:08:28;;;;;;;5.38;3.08;;;10.00;99.90;;;;;;10019514;28;20164;-52
2022/12/21 01:13:19;;;;;;;4.80;3.25;;;10.00;99.90;;;;;;10018881;28;20030;-58
2022/12/21 01:18:10;;;;;;;7.53;3.30;;;10.00;99.90;;;;;;10017816;28;20052;-59
2022/12/21 01:23:01;;;;;;;4.53;3.13;;;10.00;99.90;;;;;;10018075;28;20213;-57
2022/12/21 01:27:52;;;;;;;3.65;2.58;;;10.00;99.90;;;;;;10020159;28;20105;-60
2022/12/21 01:32:42;;;;;;;7.35;2.50;;;10.00;99.90;;;;;;10018320;28;20038;-58
2022/12/21 01:37:33;;;;;;;4.95;3.45;;;10.00;99.90;;;;;;10017180;28;20065;-62
2022/12/21 01:42:24;;;;;;;4.68;2.42;;;10.00;99.90;;;;;;10009923;28;20034;-55
2022/12/21 01:47:19;;;;;;;4.47;2.13;;;10.00;99.90;;;;;;10018280;28;20025;-48
2022/12/21 01:52:12;;;;;;;;;;;10.10;99.90;;;;;;10018853;28;20034;-58
2022/12/21 01:57:08;;;;;;;4.68;1.80;;;10.00;99.90;;;;;;10017166;28;20406;-56
2022/12/21 02:02:04;;;;;;;2.97;1.90;;;10.10;99.90;;;;;;10017025;28;20042;-60
2022/12/21 02:06:56;;;;;;;;;;;10.10;99.90;;;;;;10016006;28;20022;-60
2022/12/21 02:11:47;;;;;;;2.83;1.33;;;10.10;99.90;;;;;;10013161;28;19905;-63
2022/12/21 02:17:16;;;;;;;2.72;1.65;;;10.20;99.90;;;;;;10016535;28;20061;-63
2022/12/21 02:22:49;;;;;;;6.13;2.10;;;10.20;99.90;;;;;;9890397;28;20059;-62
2022/12/21 02:28:08;;;;;;;3.58;1.92;;;10.30;99.90;;;;;;9995773;28;20072;-57
2022/12/21 02:33:19;;;;;;;2.63;1.80;;;10.30;99.90;;;;;;10008427;28;20022;-55
2022/12/21 02:38:40;;;;;;;1.50;1.13;;;10.40;99.90;;;;;;10005981;28;20316;-59
2022/12/21 02:48:54;;;;;;;1.92;1.63;;;10.40;99.90;;;;;;10021389;28;20215;-64
2022/12/21 02:53:45;;;;;;;2.30;1.90;;;10.40;99.90;;;;;;10016790;28;20037;-62
2022/12/21 02:58:36;;;;;;;2.60;1.60;;;10.50;99.90;;;;;;10024729;28;20030;-63
2022/12/21 03:04:00;;;;;;;3.30;1.90;;;10.50;99.90;;;;;;10024068;28;20073;-64
2022/12/21 03:08:56;;;;;;;5.18;1.80;;;10.50;99.90;;;;;;10019934;28;20037;-64
2022/12/21 03:14:01;;;;;;;3.13;2.03;;;10.50;99.90;;;;;;10023673;28;20104;-58
2022/12/21 03:19:16;;;;;;;3.42;1.27;;;10.50;99.90;;;;;;10011084;28;20066;-57
2022/12/21 03:24:22;;;;;;;5.40;1.50;;;10.50;99.90;;;;;;10016893;28;20034;-58
2022/12/21 03:29:17;;;;;;;4.10;1.60;;;10.50;99.90;;;;;;10022904;28;20026;-60
2022/12/21 03:34:16;;;;;;;3.73;2.90;;;10.50;99.90;;;;;;10020388;28;20057;-52
2022/12/21 03:39:10;;;;;;;2.25;1.30;;;10.60;99.90;;;;;;10021743;28;20048;-48
2022/12/21 03:44:04;;;;;;;3.15;1.52;;;10.60;99.90;;;;;;10022242;28;20041;-48
2022/12/21 03:48:57;;;;;;;2.85;1.70;;;10.60;99.90;;;;;;10021837;28;20459;-54
2022/12/21 03:54:16;;;;;;;4.63;1.45;;;10.50;99.90;;;;;;10021922;28;20494;-54
2022/12/21 03:59:09;;;;;;;3.45;1.65;;;10.50;99.90;;;;;;10013405;28;20038;-49
2022/12/21 04:04:10;;;;;;;4.43;1.92;;;10.50;99.90;;;;;;10009129;28;20045;-52
2022/12/21 04:09:03;;;;;;;1.92;1.55;;;10.50;99.90;;;;;;9987645;28;20516;-52
2022/12/21 04:13:54;;;;;;;1.88;1.17;;;10.60;99.90;;;;;;10018746;28;20030;-55
2022/12/21 04:29:03;;;;;;;2.45;1.52;;;10.60;99.90;;;;;;10019024;28;20041;-51
2022/12/21 04:33:54;;;;;;;2.38;1.40;;;10.60;99.90;;;;;;10019673;28;20040;-50
2022/12/21 04:38:45;;;;;;;1.80;1.50;;;10.50;99.90;;;;;;10019899;28;20488;-49
2022/12/21 04:43:36;;;;;;;2.78;1.70;;;10.60;99.90;;;;;;10017684;28;20608;-50
2022/12/21 04:48:27;;;;;;;3.30;2.35;;;10.60;99.90;;;;;;10018970;28;20018;-51
2022/12/21 04:53:18;;;;;;;3.05;1.40;;;10.60;99.90;;;;;;10019668;28;20112;-51
2022/12/21 04:58:08;;;;;;;1.45;1.20;;;10.60;99.90;;;;;;10017061;28;20030;-53
2022/12/21 05:02:59;;;;;;;2.75;1.50;;;10.60;99.90;;;;;;10019559;28;20131;-55
2022/12/21 05:07:51;;;;;;;3.28;1.33;;;10.60;99.90;;;;;;10018925;28;20144;-48
2022/12/21 05:12:42;;;;;;;2.10;1.30;;;10.60;99.90;;;;;;10011334;28;20061;-51
2022/12/21 05:17:32;;;;;;;1.98;1.35;;;10.60;99.90;;;;;;10017998;28;20053;-49
2022/12/21 05:22:23;;;;;;;4.25;1.65;;;10.60;99.90;;;;;;10018862;28;20058;-54
2022/12/21 05:27:14;;;;;;;2.55;1.60;;;10.70;99.90;;;;;;10013400;28;20030;-52
2022/12/21 05:32:04;;;;;;;1.92;1.35;;;10.70;99.90;;;;;;10019364;28;20038;-50
2022/12/21 05:36:55;;;;;;;2.97;1.60;;;10.70;99.90;;;;;;10019117;28;20120;-55
2022/12/21 05:41:46;;;;;;;3.25;1.40;;;10.70;99.90;;;;;;10017886;28;20073;-55
2022/12/21 05:46:36;;;;;;;2.70;1.55;;;10.80;99.90;;;;;;10019052;28;20715;-51
2022/12/21 05:51:27;;;;;;;1.48;1.13;;;10.80;99.90;;;;;;10017246;28;20033;-53
2022/12/21 05:56:18;;;;;;;1.35;1.25;;;10.80;99.90;;;;;;10018057;28;20399;-50
2022/12/21 06:01:10;;;;;;;2.40;1.38;;;10.80;99.90;;;;;;10016334;28;20658;-60
2022/12/21 06:06:09;;;;;;;2.13;1.13;;;10.80;99.90;;;;;;9999993;28;20424;-54
2022/12/21 06:11:07;;;;;;;3.88;1.30;;;10.80;99.90;;;;;;9996195;28;20081;-53
2022/12/21 06:16:06;;;;;;;3.67;1.45;;;10.80;99.90;;;;;;10014750;28;20117;-48
2022/12/21 06:20:56;;;;;;;2.92;1.40;;;10.80;99.90;;;;;;10011759;28;20066;-52
2022/12/21 06:25:47;;;;;;;3.90;1.67;;;10.80;99.90;;;;;;10012867;28;20796;-53
2022/12/21 06:30:38;;;;;;;1.75;1.38;;;10.80;99.90;;;;;;10017278;28;20026;-51
2022/12/21 06:35:28;;;;;;;3.25;1.40;;;10.80;99.90;;;;;;10017038;28;20112;-54
2022/12/21 06:40:19;;;;;;;2.50;1.75;;;10.80;99.90;;;;;;10017199;28;20097;-55
2022/12/21 06:45:10;;;;;;;2.38;1.55;;;10.90;99.90;;;;;;10015477;28;20395;-52
2022/12/21 06:50:00;;;;;;;2.92;1.90;;;10.80;99.90;;;;;;10011988;28;20809;-50
2022/12/21 06:54:51;;;;;;;2.63;1.83;;;10.70;99.90;;;;;;10016779;28;20120;-56
2022/12/21 06:59:41;;;;;;;2.30;1.60;;;10.80;99.90;;;;;;10016342;28;20465;-55
2022/12/21 07:04:32;;;;;;;7.13;1.65;;;10.80;99.90;;;;;;10016057;28;20034;-49
2022/12/21 07:09:22;;;;;;;7.22;1.95;;;10.70;99.90;;;;;;10015208;28;20022;-54
2022/12/21 07:14:14;;;;;;;5.43;1.80;;;10.80;99.90;;;;;;10016636;28;20041;-53
2022/12/21 07:19:04;;;;;;;3.22;2.08;;;10.80;99.90;;;;;;10016236;28;20062;-49
2022/12/21 07:23:55;;;;;;;4.65;1.70;;;10.80;99.90;;;;;;10015803;28;20080;-52
2022/12/21 07:28:47;;;;;;;3.10;2.08;;;10.80;99.90;;;;;;10016290;28;20034;-52
2022/12/21 07:33:40;;;;;;;4.47;2.17;;;10.80;99.90;;;;;;10012256;28;20550;-54
2022/12/21 07:38:33;;;;;;;2.17;1.38;;;10.70;99.90;;;;;;10022919;28;20467;-53
2022/12/21 07:43:24;;;;;;;2.40;1.90;;;10.80;99.90;;;;;;10021824;28;20034;-57
2022/12/21 07:48:15;;;;;;;2.92;1.45;;;10.80;99.90;;;;;;10020810;28;20033;-54
2022/12/21 07:53:05;;;;;;;4.10;1.83;;;10.80;99.90;;;;;;10022675;28;20245;-57
2022/12/21 07:57:56;;;;;;;2.03;1.40;;;10.80;99.90;;;;;;10021582;28;20419;-54
2022/12/21 08:02:46;;;;;;;4.93;1.63;;;10.80;99.90;;;;;;10021971;28;20231;-56
2022/12/21 08:07:37;;;;;;;1.75;1.30;;;10.90;99.90;;;;;;10022886;28;20049;-59
2022/12/21 08:12:28;;;;;;;4.45;1.83;;;11.00;99.90;;;;;;10022660;28;20393;-54
2022/12/21 08:17:19;;;;;;;1.70;1.25;;;11.00;99.90;;;;;;10021261;28;20018;-58
2022/12/21 08:22:10;;;;;;;2.25;1.33;;;11.00;99.90;;;;;;10021469;28;20054;-55
2022/12/21 08:27:00;;;;;;;3.42;1.80;;;11.00;99.90;;;;;;10020569;28;20026;-63
2022/12/21 08:31:51;;;;;;;2.58;1.55;;;11.10;99.90;;;;;;10020130;28;20388;-54
2022/12/21 08:36:42;;;;;;;1.42;0.98;;;11.20;99.90;;;;;;10020395;28;20022;-57
2022/12/21 08:41:32;;;;;;;2.10;1.30;;;11.30;99.90;;;;;;10019460;28;20041;-60
2022/12/21 08:46:23;;;;;;;3.45;1.60;;;11.30;99.90;;;;;;10018470;28;20121;-59
2022/12/21 08:51:13;;;;;;;2.72;1.42;;;11.30;99.90;;;;;;10019531;28;20216;-60
2022/12/21 08:56:04;;;;;;;2.05;1.48;;;11.40;99.90;;;;;;10019634;28;20033;-60
2022/12/21 09:00:55;;;;;;;2.92;2.10;;;11.40;99.90;;;;;;10011344;28;20527;-63
2022/12/21 09:05:46;;;;;;;4.30;1.55;;;11.40;99.90;;;;;;10020239;28;20057;-59
2022/12/21 09:10:37;;;;;;;4.13;2.42;;;11.40;99.90;;;;;;10018338;28;20046;-60
2022/12/21 09:15:27;;;;;;;2.55;1.42;;;11.30;99.90;;;;;;10019212;28;20034;-57
2022/12/21 09:20:18;;;;;;;1.50;1.25;;;11.30;99.90;;;;;;10019181;28;20056;-54
2022/12/21 09:25:09;;;;;;;3.15;1.73;;;11.40;99.90;;;;;;10013426;28;20462;-54
2022/12/21 09:30:00;;;;;;;2.47;1.63;;;11.40;99.90;;;;;;10013743;28;20117;-53
2022/12/21 09:34:50;;;;;;;3.08;1.88;;;11.40;99.90;;;;;;10016694;28;20476;-56
2022/12/21 09:39:41;;;;;;;3.35;2.03;;;11.40;99.90;;;;;;10007489;28;20499;-50
2022/12/21 09:44:37;;;;;;;2.28;1.33;;;11.40;99.90;;;;;;10018497;28;20327;-54
2022/12/21 09:49:42;;;;;;;3.33;1.42;;;11.40;99.90;;;;;;10016639;28;20464;-55
2022/12/21 09:54:40;;;;;;;3.30;2.20;;;11.40;99.90;;;;;;10016288;28;20049;-55
2022/12/21 09:59:31;;;;;;;2.55;1.40;;;11.50;99.90;;;;;;10017620;28;20350;-56
2022/12/21 10:04:45;;;;;;;3.67;1.70;;;11.70;99.90;;;;;;10016558;28;20346;-58
2022/12/21 10:10:10;;;;;;;7.57;1.83;;;12.00;99.90;;;;;;10015330;28;20401;-54
2022/12/21 10:15:31;;;;;;;2.83;2.17;;;12.00;99.90;;;;;;10015393;28;20042;-56
2022/12/21 10:20:33;;;;;;;2.67;1.58;;;11.90;99.90;;;;;;10013468;28;20072;-53
2022/12/21 10:25:27;;;;;;;2.75;1.60;;;11.90;99.90;;;;;;10014329;28;20038;-54
2022/12/21 10:30:18;;;;;;;2.72;1.70;;;12.00;99.90;;;;;;10015463;28;20447;-54
2022/12/21 10:35:35;;;;;;;2.40;1.65;;;12.10;99.90;;;;;;10013321;28;20458;-54
2022/12/21 10:40:30;;;;;;;3.20;1.42;;;12.30;99.90;;;;;;10007158;28;20560;-54
2022/12/21 10:45:24;;;;;;;3.47;1.52;;;12.50;99.90;;;;;;10014266;28;20037;-57
2022/12/21 10:50:16;;;;;;;3.15;1.70;;;12.60;99.90;;;;;;10012130;28;20010;-57
2022/12/21 10:55:26;;;;;;;2.10;1.52;;;12.70;99.90;;;;;;10014064;28;20349;-59
2022/12/21 11:00:51;;;;;;;2.65;1.48;;;12.90;99.90;;;;;;10014596;28;20042;-59
2022/12/21 11:05:42;;;;;;;3.08;1.67;;;12.90;99.90;;;;;;9989834;28;20064;-57
2022/12/21 11:10:33;;;;;;;4.28;2.10;;;13.10;99.90;;;;;;10021136;28;20034;-61
2022/12/21 11:15:24;;;;;;;2.60;1.50;;;13.20;99.90;;;;;;10021682;28;20078;-61
2022/12/21 11:20:20;;;;;;;4.32;1.98;;;13.10;99.90;;;;;;10020249;28;20508;-61
2022/12/21 11:25:21;;;;;;;;;;;13.10;99.90;;;;;;10020368;28;20026;-61
2022/12/21 11:30:21;;;;;;;2.45;1.55;;;13.10;99.90;;;;;;10019694;28;19905;-63
2022/12/21 11:35:26;;;;;;;3.67;2.05;;;13.30;99.90;;;;;;10019437;28;20010;-62
2022/12/21 11:40:26;;;;;;;4.22;2.13;;;13.50;99.90;;;;;;10021378;28;20022;-62
2022/12/21 11:45:25;;;;;;;5.07;2.00;;;13.50;99.90;;;;;;10020609;28;20042;-60
2022/12/21 11:50:21;;;;;;;4.72;1.83;;;13.50;99.90;;;;;;10022301;28;20018;-60
2022/12/21 11:55:14;;;;;;;3.20;1.90;;;13.60;99.90;;;;;;10021739;28;20026;-59
2022/12/21 12:00:18;;;;;;;4.47;2.15;;;13.90;99.90;;;;;;10012231;28;20027;-60
2022/12/21 12:05:32;;;;;;;3.30;1.70;;;14.00;99.90;;;;;;9994609;28;20053;-57
2022/12/21 12:10:56;;;;;;;4.30;1.73;;;13.70;99.90;;;;;;10005147;28;20068;-58
2022/12/21 12:15:52;;;;;;;3.70;1.95;;;13.80;99.90;;;;;;10005389;28;20497;-54
2022/12/21 12:21:14;;;;;;;2.25;1.55;;;13.80;99.90;;;;;;10010385;28;20108;-60
2022/12/21 12:26:32;;;;;;;3.60;1.50;;;13.90;99.90;;;;;;10007722;28;20022;-58
2022/12/21 12:31:26;;;;;;;2.70;1.33;;;14.00;99.90;;;;;;10009579;28;20029;-56
2022/12/21 12:36:17;;;;;;;3.80;1.90;;;14.00;99.90;;;;;;10018491;28;20441;-56
2022/12/21 12:41:26;;;;;;;3.85;2.00;;;13.90;99.90;;;;;;10016060;28;20100;-55
2022/12/21 12:46:35;;;;;;;2.65;1.83;;;13.80;99.90;;;;;;10000401;28;20053;-52
2022/12/21 12:51:31;;;;;;;4.13;1.90;;;13.70;99.90;;;;;;10004275;28;20064;-56
2022/12/21 12:57:03;;;;;;;2.42;1.20;;;13.70;99.90;;;;;;10009080;28;20018;-54
2022/12/21 13:02:09;;;;;;;3.75;1.30;;;13.60;99.90;;;;;;10018546;28;20404;-61
2022/12/21 13:07:34;;;;;;;1.55;1.17;;;13.60;99.90;;;;;;10013957;28;20033;-57
2022/12/21 13:12:38;;;;;;;3.95;1.65;;;13.80;99.90;;;;;;10003958;28;20096;-56
2022/12/21 13:17:33;;;;;;;2.08;1.40;;;13.90;99.90;;;;;;10013110;28;20034;-61
2022/12/21 13:22:29;;;;;;;1.98;1.40;;;14.00;99.90;;;;;;10015817;28;20045;-63
2022/12/21 13:27:35;;;;;;;2.10;1.13;;;14.00;99.90;;;;;;10011794;28;20041;-63
2022/12/21 13:32:33;;;;;;;2.72;1.50;;;14.00;99.90;;;;;;10012624;28;20101;-59
2022/12/21 13:37:24;;;;;;;4.38;1.40;;;14.20;99.90;;;;;;10016556;28;20033;-55
2022/12/21 13:42:35;;;;;;;2.30;1.23;;;14.30;99.90;;;;;;10014292;28;20455;-53
2022/12/21 13:47:30;;;;;;;2.00;1.00;;;14.30;99.90;;;;;;10028902;28;20029;-53
2022/12/21 13:52:44;;;;;;;1.92;1.25;;;14.30;99.90;;;;;;10012988;28;20029;-53
2022/12/21 13:57:53;;;;;;;2.90;1.42;;;14.30;99.90;;;;;;10012260;28;20029;-55
2022/12/21 14:02:51;;;;;;;3.15;1.40;;;14.10;99.90;;;;;;10016852;28;20501;-59
2022/12/21 14:08:14;;;;;;;4.15;1.80;;;14.00;99.90;;;;;;10005330;28;20108;-56
2022/12/21 14:13:23;;;;;;;2.03;1.90;;;13.90;99.90;;;;;;10017592;28;20032;-54
2022/12/21 14:18:17;;;;;;;2.80;2.05;;;13.80;99.90;;;;;;10015478;28;20452;-56
2022/12/21 14:23:23;;;;;;;2.47;1.38;;;13.60;99.90;;;;;;10013133;28;20492;-54
2022/12/21 14:28:23;;;;;;;3.20;1.75;;;13.60;99.90;;;;;;10010433;28;20492;-57
2022/12/21 14:33:19;;;;;;;3.13;2.22;;;13.50;99.90;;;;;;10003244;28;20037;-53
2022/12/21 14:38:18;;;;;;;5.75;2.03;;;13.50;99.90;;;;;;9996441;28;20034;-60
2022/12/21 14:43:09;;;;;;;1.88;1.58;;;13.40;99.90;;;;;;10020323;28;20695;-60
2022/12/21 14:48:20;;;;;;;6.35;1.88;;;13.40;99.90;;;;;;10021266;28;20345;-54
2022/12/21 14:53:29;;;;;;;3.65;1.80;;;13.40;99.90;;;;;;10024846;28;20030;-52
2022/12/21 14:58:25;;;;;;;3.83;1.67;;;13.30;99.90;;;;;;10020502;28;20432;-54
2022/12/21 15:03:21;;;;;;;3.35;1.75;;;13.30;99.90;;;;;;10028995;28;20076;-53
2022/12/21 15:08:14;;;;;;;3.60;1.50;;;13.30;99.90;;;;;;10026696;28;20073;-56
2022/12/21 15:13:23;;;;;;;2.80;1.48;;;13.30;99.90;;;;;;10024211;28;20109;-53
2022/12/21 15:18:36;;;;;;;2.75;1.50;;;13.30;99.90;;;;;;10017826;28;20049;-59
2022/12/21 15:23:34;;;;;;;2.60;1.27;;;13.30;99.90;;;;;;10008727;28;20057;-50
2022/12/21 15:28:26;;;;;;;2.35;1.65;;;13.30;99.90;;;;;;10023158;28;20048;-57
2022/12/21 15:33:26;;;;;;;6.00;1.55;;;13.20;99.90;;;;;;10014938;28;20531;-57
2022/12/21 15:38:26;;;;;;;1.67;1.33;;;13.10;99.90;;;;;;10022809;28;20438;-53
2022/12/21 15:43:22;;;;;;;2.33;1.33;;;13.00;99.90;;;;;;10023652;28;20076;-55
2022/12/21 15:48:39;;;;;;;4.05;1.60;;;13.00;99.90;;;;;;10019158;28;20026;-53
2022/12/21 15:53:30;;;;;;;63.95;38.83;;;13.00;99.90;;;;;;10024992;28;20201;-60
2022/12/21 15:58:37;;;;;;;42.03;23.80;;;12.90;99.90;;;;;;10017985;28;20065;-60
2022/12/21 16:03:28;;;;;;;11.05;5.00;;;13.10;99.90;;;;;;10020019;28;20076;-59
2022/12/21 16:08:21;;;;;;;6.85;4.40;;;13.00;99.90;;;;;;10021805;28;20431;-57
2022/12/21 16:13:12;;;;;;;2.80;1.95;;;12.90;99.90;;;;;;10021263;28;20037;-55
2022/12/21 16:18:08;;;;;;;4.45;2.22;;;12.90;99.90;;;;;;10020199;28;20030;-56
2022/12/21 16:22:59;;;;;;;3.20;1.90;;;12.90;99.90;;;;;;10019513;28;20409;-60
2022/12/21 16:27:49;;;;;;;3.33;2.25;;;12.90;99.90;;;;;;10017014;28;20110;-54
2022/12/21 16:32:40;;;;;;;3.58;2.20;;;12.80;99.90;;;;;;10007191;28;20132;-53
2022/12/21 16:37:31;;;;;;;4.10;2.63;;;12.80;99.90;;;;;;10018933;28;20029;-55
2022/12/21 16:42:23;;;;;;;3.45;2.30;;;12.70;99.90;;;;;;10016163;28;20050;-52
2022/12/21 16:47:40;;;;;;;2.38;2.00;;;12.70;99.90;;;;;;10017698;28;20056;-49
2022/12/21 16:52:41;;;;;;;3.45;2.17;;;12.70;99.90;;;;;;10012423;28;20033;-54
2022/12/21 16:57:36;;;;;;;3.80;1.85;;;12.60;99.90;;;;;;10015669;28;20026;-53
2022/12/21 17:02:37;;;;;;;4.22;2.00;;;12.60;99.90;;;;;;10017637;28;20040;-55
2022/12/21 17:07:34;;;;;;;2.22;1.63;;;12.70;99.90;;;;;;10014297;28;20041;-58
2022/12/21 17:12:36;;;;;;;6.75;2.10;;;12.60;99.90;;;;;;10015052;28;20092;-57
2022/12/21 17:17:43;;;;;;;2.50;2.00;;;12.70;99.90;;;;;;10003095;28;20183;-60
2022/12/21 17:22:35;;;;;;;3.22;1.50;;;12.60;99.90;;;;;;9999089;28;20056;-58
2022/12/21 17:27:53;;;;;;;3.47;2.00;;;12.60;99.90;;;;;;10007561;28;20030;-56
2022/12/21 17:32:44;;;;;;;4.00;2.15;;;12.70;99.90;;;;;;10015854;28;20057;-56
2022/12/21 17:37:35;;;;;;;3.20;2.00;;;12.60;99.90;;;;;;10006756;28;20030;-58
2022/12/21 17:42:26;;;;;;;2.78;2.00;;;12.60;99.90;;;;;;10010324;28;20132;-60
2022/12/21 17:47:28;;;;;;;3.55;2.22;;;12.60;99.90;;;;;;10008486;28;20043;-61
2022/12/21 17:52:19;;;;;;;3.20;1.45;;;12.60;99.90;;;;;;10005640;28;20088;-60
2022/12/21 17:57:13;;;;;;;2.22;1.63;;;12.60;99.90;;;;;;10012062;28;20496;-58
2022/12/21 18:02:12;;;;;;;2.88;1.92;;;12.60;99.90;;;;;;10016525;28;20119;-60
2022/12/21 18:07:03;;;;;;;5.75;2.28;;;12.50;99.90;;;;;;9979209;28;20034;-57
2022/12/21 18:11:54;;;;;;;3.28;1.88;;;12.50;99.90;;;;;;10006976;28;20030;-59
2022/12/21 18:16:45;;;;;;;3.20;1.83;;;12.50;99.90;;;;;;10009129;28;20042;-59
2022/12/21 18:21:35;;;;;;;2.88;2.00;;;12.50;99.90;;;;;;10004517;28;20058;-55
2022/12/21 18:26:26;;;;;;;3.80;2.38;;;12.40;99.90;;;;;;10007206;28;20102;-54
2022/12/21 18:31:19;;;;;;;3.58;1.88;;;12.40;99.90;;;;;;10013451;28;20093;-59
2022/12/21 18:36:13;;;;;;;2.55;2.13;;;12.40;99.90;;;;;;10003235;28;20057;-57
2022/12/21 18:41:04;;;;;;;3.00;1.80;;;12.30;99.90;;;;;;9996099;28;20039;-58
2022/12/21 18:46:08;;;;;;;4.63;2.28;;;12.30;99.90;;;;;;10007070;28;20101;-57
2022/12/21 18:50:59;;;;;;;2.33;1.75;;;12.30;99.90;;;;;;10001316;28;20570;-55
2022/12/21 18:55:50;;;;;;;2.20;1.65;;;12.30;99.90;;;;;;10005416;28;20026;-58
2022/12/21 19:00:43;;;;;;;3.13;1.95;;;12.30;99.90;;;;;;10013030;28;20018;-53
2022/12/21 19:05:34;;;;;;;2.97;2.65;;;12.20;99.90;;;;;;9993667;28;20413;-59
2022/12/21 19:10:28;;;;;;;4.07;1.77;;;12.30;99.90;;;;;;9984722;28;20079;-53
2022/12/21 19:15:18;;;;;;;4.88;2.55;;;12.30;99.90;;;;;;10010559;28;20029;-58
2022/12/21 19:20:17;;;;;;;2.85;2.17;;;12.20;99.90;;;;;;10005815;28;20085;-57
2022/12/21 19:25:18;;;;;;;3.70;2.15;;;12.20;99.90;;;;;;9999590;28;20491;-57
2022/12/21 19:30:29;;;;;;;4.07;1.73;;;12.20;99.90;;;;;;10003109;28;20025;-59
2022/12/21 19:35:21;;;;;;;2.28;1.67;;;12.20;99.90;;;;;;10021835;28;20508;-60
2022/12/21 19:40:30;;;;;;;3.78;2.10;;;12.20;99.90;;;;;;10000877;28;20049;-60
2022/12/21 19:45:21;;;;;;;2.58;1.67;;;12.20;99.90;;;;;;10014813;28;20037;-59
2022/12/21 19:50:17;;;;;;;2.58;1.50;;;12.20;99.90;;;;;;10009486;28;20033;-58
2022/12/21 19:55:13;;;;;;;4.45;2.25;;;12.20;99.90;;;;;;10006517;28;20571;-59
2022/12/21 20:00:05;;;;;;;4.32;1.90;;;12.20;99.90;;;;;;10010360;28;20035;-59
2022/12/21 20:04:57;;;;;;;4.30;1.75;;;12.10;99.90;;;;;;10013255;28;20056;-57
2022/12/21 20:09:48;;;;;;;2.63;1.40;;;12.10;99.90;;;;;;10018420;28;20428;-58
2022/12/21 20:14:44;;;;;;;2.63;1.35;;;12.10;99.90;;;;;;10014083;28;20049;-60
2022/12/21 20:19:36;;;;;;;6.65;1.60;;;12.20;99.90;;;;;;10018163;28;20508;-60
2022/12/21 20:24:27;;;;;;;3.20;1.60;;;12.10;99.90;;;;;;10019656;28;20041;-60
2022/12/21 20:29:18;;;;;;;2.42;1.45;;;12.10;99.90;;;;;;10016101;28;20036;-61
2022/12/21 20:34:14;;;;;;;1.85;1.40;;;12.10;99.90;;;;;;10020859;28;20034;-59
2022/12/21 20:39:20;;;;;;;2.42;1.50;;;12.00;99.90;;;;;;10004065;28;20315;-63
2022/12/21 20:44:11;;;;;;;1.98;1.05;;;12.00;99.90;;;;;;10020992;28;20045;-64
2022/12/21 20:49:02;;;;;;;4.63;1.23;;;12.00;99.90;;;;;;10021787;28;20026;-61
2022/12/21 20:53:53;;;;;;;2.45;1.35;;;12.00;99.90;;;;;;10024641;28;20232;-61
2022/12/21 20:58:43;;;;;;;4.20;1.85;;;12.00;99.90;;;;;;10010298;28;20196;-61
2022/12/21 21:03:34;;;;;;;3.03;1.30;;;12.00;99.90;;;;;;9997352;28;20053;-60
2022/12/21 21:08:26;;;;;;;3.00;1.55;;;12.00;99.90;;;;;;10005902;28;20036;-60
2022/12/21 21:13:16;;;;;;;3.05;1.70;;;12.10;99.90;;;;;;10013428;28;20033;-61
2022/12/21 21:18:16;;;;;;;4.28;1.80;;;12.10;99.90;;;;;;10007726;28;20054;-61
2022/12/21 21:23:07;;;;;;;5.32;2.10;;;12.10;99.90;;;;;;10018185;28;20405;-57
2022/12/21 21:28:02;;;;;;;2.38;1.33;;;12.10;99.90;;;;;;10018388;28;20026;-59
2022/12/21 21:32:54;;;;;;;2.25;1.63;;;12.10;99.90;;;;;;10018849;28;20044;-62
2022/12/21 21:42:57;;;;;;;3.50;1.75;;;12.10;99.90;;;;;;10017357;28;20036;-61
2022/12/21 21:47:48;;;;;;;75.05;34.25;;;12.20;99.90;;;;;;9986757;28;20034;-59
2022/12/21 21:52:39;;;;;;;9.88;4.60;;;12.30;99.90;;;;;;9995997;28;20034;-55
2022/12/21 21:57:31;;;;;;;4.78;2.90;;;12.30;99.90;;;;;;10001450;28;20026;-60
2022/12/21 22:02:28;;;;;;;6.25;2.42;;;12.30;99.90;;;;;;10017697;28;20040;-61
2022/12/21 22:07:19;;;;;;;2.63;2.00;;;12.20;99.90;;;;;;10017310;28;20034;-62
2022/12/21 22:12:22;;;;;;;5.57;2.13;;;12.20;99.90;;;;;;10012785;28;20175;-61
2022/12/21 22:17:12;;;;;;;3.13;2.08;;;12.20;99.90;;;;;;10014440;28;20017;-65
2022/12/21 22:32:57;;;;;;;3.75;1.45;;;12.20;99.90;;;;;;10017549;28;20485;-64
2022/12/21 22:42:58;;;;;;;5.07;2.10;;;12.20;99.90;;;;;;10017939;28;20049;-62
2022/12/21 22:47:48;;;;;;;2.47;1.45;;;12.10;99.90;;;;;;10016605;28;20053;-64
2022/12/21 22:52:41;;;;;;;2.45;1.77;;;12.10;99.90;;;;;;10015890;28;20026;-66
2022/12/21 22:57:34;;;;;;;4.15;1.48;;;12.10;99.90;;;;;;10016023;28;20026;-65
2022/12/21 23:02:25;;;;;;;2.28;1.60;;;12.10;99.90;;;;;;10017078;28;20036;-62
2022/12/21 23:07:16;;;;;;;3.47;2.03;;;12.10;99.90;;;;;;10023850;28;20032;-56
2022/12/21 23:27:55;;;;;;;3.13;1.73;;;12.00;99.90;;;;;;10018168;28;20033;-62
2022/12/21 23:43:33;;;;;;;5.78;2.10;;;11.90;99.90;;;;;;10022812;28;20104;-60
